sensor_id;sensor_type;location;lat;lon;timestamp;P1;durP1;ratioP1;P2;durP2;ratioP2
27983;SDS011;15317;50.360;8.726;2023-08-12T00:02:05;6.87;;;6.27;;
27983;SDS011;15317;50.360;8.726;2023-08-12T00:07:08;6.90;;;6.03;;
27983;SDS011;15317;50.360;8.726;2023-08-12T00:12:11;6.50;;;6.00;;
27983;SDS011;15317;50.360;8.726;2023-08-12T00:17:16;6.63;;;6.13;;
27983;SDS011;15317;50.360;8.726;2023-08-12T00:22:19;7.03;;;6.43;;
27983;SDS011;15317;50.360;8.726;2023-08-12T00:27:23;6.50;;;6.00;;
27983;SDS011;15317;50.360;8.726;2023-08-12T00:32:28;6.63;;;6.10;;
27983;SDS011;15317;50.360;8.726;2023-08-12T00:37:31;7.07;;;6.20;;
27983;SDS011;15317;50.360;8.726;2023-08-12T00:42:34;7.50;;;6.90;;
27983;SDS011;15317;50.360;8.726;2023-08-12T00:47:39;7.33;;;6.70;;
27983;SDS011;15317;50.360;8.726;2023-08-12T00:52:43;7.10;;;6.40;;
27983;SDS011;15317;50.360;8.726;2023-08-12T00:57:47;7.00;;;6.40;;
27983;SDS011;15317;50.360;8.726;2023-08-12T01:02:51;6.80;;;6.30;;
27983;SDS011;15317;50.360;8.726;2023-08-12T01:07:57;7.10;;;6.50;;
27983;SDS011;15317;50.360;8.726;2023-08-12T01:13:03;6.63;;;6.00;;
27983;SDS011;15317;50.360;8.726;2023-08-12T01:18:16;6.90;;;6.30;;
27983;SDS011;15317;50.360;8.726;2023-08-12T01:23:21;7.07;;;6.47;;
27983;SDS011;15317;50.360;8.726;2023-08-12T01:28:25;6.53;;;6.03;;
27983;SDS011;15317;50.360;8.726;2023-08-12T01:33:30;6.97;;;6.37;;
27983;SDS011;15317;50.360;8.726;2023-08-12T01:38:39;7.93;;;7.13;;
27983;SDS011;15317;50.360;8.726;2023-08-12T01:43:44;7.47;;;6.67;;
27983;SDS011;15317;50.360;8.726;2023-08-12T01:48:47;6.57;;;5.97;;
27983;SDS011;15317;50.360;8.726;2023-08-12T01:53:52;7.30;;;6.73;;
27983;SDS011;15317;50.360;8.726;2023-08-12T01:58:55;7.00;;;6.40;;
27983;SDS011;15317;50.360;8.726;2023-08-12T02:03:58;7.37;;;6.70;;
27983;SDS011;15317;50.360;8.726;2023-08-12T02:09:03;8.93;;;6.40;;
27983;SDS011;15317;50.360;8.726;2023-08-12T02:14:06;7.10;;;6.50;;
27983;SDS011;15317;50.360;8.726;2023-08-12T02:19:10;7.33;;;6.83;;
27983;SDS011;15317;50.360;8.726;2023-08-12T02:24:14;7.20;;;6.70;;
27983;SDS011;15317;50.360;8.726;2023-08-12T02:29:17;7.27;;;6.57;;
27983;SDS011;15317;50.360;8.726;2023-08-12T02:34:21;7.10;;;6.40;;
27983;SDS011;15317;50.360;8.726;2023-08-12T02:39:25;9.23;;;7.00;;
27983;SDS011;15317;50.360;8.726;2023-08-12T02:44:28;7.23;;;6.70;;
27983;SDS011;15317;50.360;8.726;2023-08-12T02:49:32;7.67;;;6.90;;
27983;SDS011;15317;50.360;8.726;2023-08-12T02:54:36;8.33;;;7.57;;
27983;SDS011;15317;50.360;8.726;2023-08-12T02:59:39;8.60;;;7.90;;
27983;SDS011;15317;50.360;8.726;2023-08-12T03:04:43;8.43;;;7.10;;
27983;SDS011;15317;50.360;8.726;2023-08-12T03:09:49;8.87;;;8.00;;
27983;SDS011;15317;50.360;8.726;2023-08-12T03:14:52;8.50;;;7.90;;
27983;SDS011;15317;50.360;8.726;2023-08-12T03:19:56;8.90;;;8.20;;
27983;SDS011;15317;50.360;8.726;2023-08-12T03:25:03;10.70;;;8.77;;
27983;SDS011;15317;50.360;8.726;2023-08-12T03:30:07;9.70;;;8.80;;
27983;SDS011;15317;50.360;8.726;2023-08-12T03:35:11;9.97;;;9.03;;
27983;SDS011;15317;50.360;8.726;2023-08-12T03:40:16;11.17;;;10.20;;
27983;SDS011;15317;50.360;8.726;2023-08-12T03:45:20;12.60;;;11.33;;
27983;SDS011;15317;50.360;8.726;2023-08-12T03:50:23;12.97;;;11.80;;
27983;SDS011;15317;50.360;8.726;2023-08-12T03:55:29;13.80;;;12.40;;
27983;SDS011;15317;50.360;8.726;2023-08-12T04:00:33;15.37;;;14.20;;
27983;SDS011;15317;50.360;8.726;2023-08-12T04:05:36;16.90;;;15.40;;
27983;SDS011;15317;50.360;8.726;2023-08-12T04:10:43;17.83;;;16.47;;
27983;SDS011;15317;50.360;8.726;2023-08-12T04:15:48;18.10;;;16.33;;
27983;SDS011;15317;50.360;8.726;2023-08-12T04:20:52;19.73;;;18.10;;
27983;SDS011;15317;50.360;8.726;2023-08-12T04:25:58;19.83;;;18.27;;
27983;SDS011;15317;50.360;8.726;2023-08-12T04:31:05;19.33;;;17.77;;
27983;SDS011;15317;50.360;8.726;2023-08-12T04:36:09;18.37;;;16.97;;
27983;SDS011;15317;50.360;8.726;2023-08-12T04:41:14;18.23;;;16.67;;
27983;SDS011;15317;50.360;8.726;2023-08-12T04:46:17;19.40;;;17.90;;
27983;SDS011;15317;50.360;8.726;2023-08-12T04:51:20;19.43;;;17.93;;
27983;SDS011;15317;50.360;8.726;2023-08-12T04:56:25;22.13;;;20.43;;
27983;SDS011;15317;50.360;8.726;2023-08-12T05:01:30;22.53;;;20.73;;
27983;SDS011;15317;50.360;8.726;2023-08-12T05:06:33;24.70;;;22.70;;
27983;SDS011;15317;50.360;8.726;2023-08-12T05:11:38;26.50;;;24.13;;
27983;SDS011;15317;50.360;8.726;2023-08-12T05:16:42;27.27;;;24.87;;
27983;SDS011;15317;50.360;8.726;2023-08-12T05:21:45;25.13;;;23.03;;
27983;SDS011;15317;50.360;8.726;2023-08-12T05:26:50;24.83;;;22.73;;
27983;SDS011;15317;50.360;8.726;2023-08-12T05:31:53;17.70;;;16.30;;
27983;SDS011;15317;50.360;8.726;2023-08-12T05:36:56;20.57;;;18.73;;
27983;SDS011;15317;50.360;8.726;2023-08-12T05:42:01;18.13;;;16.67;;
27983;SDS011;15317;50.360;8.726;2023-08-12T05:47:04;18.73;;;17.17;;
27983;SDS011;15317;50.360;8.726;2023-08-12T05:52:07;19.70;;;18.00;;
27983;SDS011;15317;50.360;8.726;2023-08-12T05:57:13;18.07;;;16.43;;
27983;SDS011;15317;50.360;8.726;2023-08-12T06:02:16;17.57;;;16.07;;
27983;SDS011;15317;50.360;8.726;2023-08-12T06:07:20;16.70;;;15.13;;
27983;SDS011;15317;50.360;8.726;2023-08-12T06:12:26;16.67;;;15.37;;
27983;SDS011;15317;50.360;8.726;2023-08-12T06:17:29;16.37;;;15.10;;
27983;SDS011;15317;50.360;8.726;2023-08-12T06:22:32;16.60;;;15.07;;
27983;SDS011;15317;50.360;8.726;2023-08-12T06:27:37;17.30;;;16.00;;
27983;SDS011;15317;50.360;8.726;2023-08-12T06:32:40;17.23;;;15.80;;
27983;SDS011;15317;50.360;8.726;2023-08-12T06:37:44;17.47;;;16.07;;
27983;SDS011;15317;50.360;8.726;2023-08-12T06:42:48;17.30;;;15.90;;
27983;SDS011;15317;50.360;8.726;2023-08-12T06:47:52;15.55;;;14.25;;
27983;SDS011;15317;50.360;8.726;2023-08-12T06:52:55;12.03;;;11.13;;
27983;SDS011;15317;50.360;8.726;2023-08-12T06:57:59;13.85;;;10.95;;
27983;SDS011;15317;50.360;8.726;2023-08-12T07:03:02;12.23;;;11.30;;
27983;SDS011;15317;50.360;8.726;2023-08-12T07:08:06;12.43;;;11.30;;
27983;SDS011;15317;50.360;8.726;2023-08-12T07:13:11;14.32;;;12.45;;
27983;SDS011;15317;50.360;8.726;2023-08-12T07:18:14;12.48;;;11.38;;
27983;SDS011;15317;50.360;8.726;2023-08-12T07:23:17;15.23;;;13.85;;
27983;SDS011;15317;50.360;8.726;2023-08-12T07:28:21;14.60;;;13.50;;
27983;SDS011;15317;50.360;8.726;2023-08-12T07:33:25;12.98;;;11.98;;
27983;SDS011;15317;50.360;8.726;2023-08-12T07:38:28;12.13;;;11.32;;
27983;SDS011;15317;50.360;8.726;2023-08-12T07:43:32;12.15;;;11.00;;
27983;SDS011;15317;50.360;8.726;2023-08-12T07:48:36;11.75;;;10.75;;
27983;SDS011;15317;50.360;8.726;2023-08-12T07:53:40;10.20;;;9.50;;
27983;SDS011;15317;50.360;8.726;2023-08-12T07:58:44;10.13;;;9.30;;
27983;SDS011;15317;50.360;8.726;2023-08-12T08:03:49;11.18;;;10.27;;
27983;SDS011;15317;50.360;8.726;2023-08-12T08:08:52;10.93;;;9.95;;
27983;SDS011;15317;50.360;8.726;2023-08-12T08:13:57;11.68;;;10.77;;
27983;SDS011;15317;50.360;8.726;2023-08-12T08:19:01;11.43;;;10.57;;
27983;SDS011;15317;50.360;8.726;2023-08-12T08:24:04;11.20;;;10.32;;
27983;SDS011;15317;50.360;8.726;2023-08-12T08:29:09;11.68;;;10.63;;
27983;SDS011;15317;50.360;8.726;2023-08-12T08:34:12;10.90;;;10.18;;
27983;SDS011;15317;50.360;8.726;2023-08-12T08:39:15;12.07;;;11.07;;
27983;SDS011;15317;50.360;8.726;2023-08-12T08:44:21;12.40;;;11.50;;
27983;SDS011;15317;50.360;8.726;2023-08-12T08:49:25;11.45;;;10.55;;
27983;SDS011;15317;50.360;8.726;2023-08-12T08:54:29;12.02;;;11.07;;
27983;SDS011;15317;50.360;8.726;2023-08-12T08:59:33;11.63;;;10.63;;
27983;SDS011;15317;50.360;8.726;2023-08-12T09:04:36;12.57;;;11.48;;
27983;SDS011;15317;50.360;8.726;2023-08-12T09:09:41;12.93;;;11.98;;
27983;SDS011;15317;50.360;8.726;2023-08-12T09:14:51;13.43;;;12.43;;
27983;SDS011;15317;50.360;8.726;2023-08-12T09:19:54;12.35;;;11.45;;
27983;SDS011;15317;50.360;8.726;2023-08-12T09:24:57;11.68;;;10.77;;
27983;SDS011;15317;50.360;8.726;2023-08-12T09:30:03;10.75;;;9.95;;
27983;SDS011;15317;50.360;8.726;2023-08-12T09:35:10;11.07;;;10.25;;
27983;SDS011;15317;50.360;8.726;2023-08-12T09:40:18;9.35;;;8.65;;
27983;SDS011;15317;50.360;8.726;2023-08-12T09:45:24;10.13;;;9.32;;
27983;SDS011;15317;50.360;8.726;2023-08-12T09:50:28;10.30;;;9.50;;
27983;SDS011;15317;50.360;8.726;2023-08-12T09:55:31;11.38;;;10.38;;
27983;SDS011;15317;50.360;8.726;2023-08-12T10:00:39;11.80;;;10.77;;
27983;SDS011;15317;50.360;8.726;2023-08-12T10:05:44;12.07;;;11.18;;
27983;SDS011;15317;50.360;8.726;2023-08-12T10:10:47;10.10;;;9.27;;
27983;SDS011;15317;50.360;8.726;2023-08-12T10:16:12;9.57;;;8.48;;
27983;SDS011;15317;50.360;8.726;2023-08-12T10:21:15;8.90;;;8.00;;
27983;SDS011;15317;50.360;8.726;2023-08-12T10:26:20;7.65;;;7.05;;
27983;SDS011;15317;50.360;8.726;2023-08-12T10:31:25;6.68;;;6.07;;
27983;SDS011;15317;50.360;8.726;2023-08-12T10:36:31;5.53;;;5.13;;
27983;SDS011;15317;50.360;8.726;2023-08-12T10:41:49;5.85;;;5.35;;
27983;SDS011;15317;50.360;8.726;2023-08-12T10:46:55;5.45;;;5.05;;
27983;SDS011;15317;50.360;8.726;2023-08-12T10:52:01;5.88;;;5.47;;
27983;SDS011;15317;50.360;8.726;2023-08-12T10:57:08;10.48;;;7.03;;
27983;SDS011;15317;50.360;8.726;2023-08-12T11:02:15;8.18;;;7.47;;
27983;SDS011;15317;50.360;8.726;2023-08-12T11:07:20;8.68;;;7.97;;
27983;SDS011;15317;50.360;8.726;2023-08-12T11:12:28;9.27;;;8.48;;
27983;SDS011;15317;50.360;8.726;2023-08-12T11:17:34;10.70;;;9.80;;
27983;SDS011;15317;50.360;8.726;2023-08-12T11:22:39;9.95;;;9.25;;
27983;SDS011;15317;50.360;8.726;2023-08-12T11:27:44;11.27;;;10.38;;
27983;SDS011;15317;50.360;8.726;2023-08-12T11:32:49;10.93;;;10.13;;
27983;SDS011;15317;50.360;8.726;2023-08-12T11:37:55;14.10;;;13.00;;
27983;SDS011;15317;50.360;8.726;2023-08-12T11:42:59;15.40;;;14.20;;
27983;SDS011;15317;50.360;8.726;2023-08-12T11:48:04;16.83;;;15.63;;
27983;SDS011;15317;50.360;8.726;2023-08-12T11:53:07;12.77;;;11.80;;
27983;SDS011;15317;50.360;8.726;2023-08-12T11:58:13;9.38;;;8.75;;
27983;SDS011;15317;50.360;8.726;2023-08-12T12:03:21;8.15;;;7.47;;
27983;SDS011;15317;50.360;8.726;2023-08-12T12:08:25;7.22;;;6.55;;
27983;SDS011;15317;50.360;8.726;2023-08-12T12:13:29;7.10;;;6.60;;
27983;SDS011;15317;50.360;8.726;2023-08-12T12:18:35;7.72;;;7.10;;
27983;SDS011;15317;50.360;8.726;2023-08-12T12:23:38;8.23;;;7.63;;
27983;SDS011;15317;50.360;8.726;2023-08-12T12:28:42;7.30;;;6.70;;
27983;SDS011;15317;50.360;8.726;2023-08-12T12:33:46;7.60;;;7.00;;
27983;SDS011;15317;50.360;8.726;2023-08-12T12:38:49;8.98;;;8.20;;
27983;SDS011;15317;50.360;8.726;2023-08-12T12:43:53;8.55;;;7.85;;
27983;SDS011;15317;50.360;8.726;2023-08-12T12:48:57;9.23;;;8.52;;
27983;SDS011;15317;50.360;8.726;2023-08-12T12:54:00;7.82;;;7.22;;
27983;SDS011;15317;50.360;8.726;2023-08-12T12:59:04;8.43;;;7.70;;
27983;SDS011;15317;50.360;8.726;2023-08-12T13:04:08;6.45;;;5.85;;
27983;SDS011;15317;50.360;8.726;2023-08-12T13:09:12;5.70;;;5.05;;
27983;SDS011;15317;50.360;8.726;2023-08-12T13:14:15;5.65;;;4.60;;
27983;SDS011;15317;50.360;8.726;2023-08-12T13:19:21;5.00;;;4.60;;
27983;SDS011;15317;50.360;8.726;2023-08-12T13:24:25;4.22;;;3.90;;
27983;SDS011;15317;50.360;8.726;2023-08-12T13:29:28;4.22;;;3.83;;
27983;SDS011;15317;50.360;8.726;2023-08-12T13:34:35;4.00;;;3.70;;
27983;SDS011;15317;50.360;8.726;2023-08-12T13:39:38;4.28;;;3.88;;
27983;SDS011;15317;50.360;8.726;2023-08-12T13:44:41;3.65;;;3.35;;
27983;SDS011;15317;50.360;8.726;2023-08-12T13:49:45;4.20;;;3.80;;
27983;SDS011;15317;50.360;8.726;2023-08-12T13:54:48;4.10;;;3.70;;
27983;SDS011;15317;50.360;8.726;2023-08-12T13:59:51;4.15;;;3.85;;
27983;SDS011;15317;50.360;8.726;2023-08-12T14:04:56;4.28;;;3.88;;
27983;SDS011;15317;50.360;8.726;2023-08-12T14:09:59;4.93;;;4.03;;
27983;SDS011;15317;50.360;8.726;2023-08-12T14:15:03;4.97;;;4.53;;
27983;SDS011;15317;50.360;8.726;2023-08-12T14:20:08;4.18;;;3.88;;
27983;SDS011;15317;50.360;8.726;2023-08-12T14:25:12;4.18;;;3.78;;
27983;SDS011;15317;50.360;8.726;2023-08-12T14:30:17;4.22;;;3.85;;
27983;SDS011;15317;50.360;8.726;2023-08-12T14:35:22;4.00;;;3.60;;
27983;SDS011;15317;50.360;8.726;2023-08-12T14:40:26;4.00;;;3.60;;
27983;SDS011;15317;50.360;8.726;2023-08-12T14:45:29;5.13;;;3.35;;
27983;SDS011;15317;50.360;8.726;2023-08-12T14:50:34;3.88;;;3.58;;
27983;SDS011;15317;50.360;8.726;2023-08-12T14:55:40;4.10;;;3.80;;
27983;SDS011;15317;50.360;8.726;2023-08-12T15:00:44;4.70;;;3.42;;
27983;SDS011;15317;50.360;8.726;2023-08-12T15:05:59;4.55;;;3.95;;
27983;SDS011;15317;50.360;8.726;2023-08-12T15:11:03;3.90;;;3.60;;
27983;SDS011;15317;50.360;8.726;2023-08-12T15:16:06;4.20;;;3.72;;
27983;SDS011;15317;50.360;8.726;2023-08-12T15:21:10;4.03;;;3.58;;
27983;SDS011;15317;50.360;8.726;2023-08-12T15:26:14;5.25;;;3.40;;
27983;SDS011;15317;50.360;8.726;2023-08-12T15:31:17;4.28;;;3.88;;
27983;SDS011;15317;50.360;8.726;2023-08-12T15:36:21;6.72;;;4.13;;
27983;SDS011;15317;50.360;8.726;2023-08-12T15:41:24;6.35;;;4.15;;
27983;SDS011;15317;50.360;8.726;2023-08-12T15:46:27;4.47;;;3.63;;
27983;SDS011;15317;50.360;8.726;2023-08-12T15:51:32;3.72;;;3.33;;
27983;SDS011;15317;50.360;8.726;2023-08-12T15:56:36;4.47;;;3.45;;
27983;SDS011;15317;50.360;8.726;2023-08-12T16:01:39;5.28;;;3.70;;
27983;SDS011;15317;50.360;8.726;2023-08-12T16:06:44;3.83;;;3.53;;
27983;SDS011;15317;50.360;8.726;2023-08-12T16:11:47;4.10;;;3.70;;
27983;SDS011;15317;50.360;8.726;2023-08-12T16:16:51;4.18;;;3.47;;
27983;SDS011;15317;50.360;8.726;2023-08-12T16:21:55;3.85;;;3.55;;
27983;SDS011;15317;50.360;8.726;2023-08-12T16:26:59;3.70;;;3.35;;
27983;SDS011;15317;50.360;8.726;2023-08-12T16:32:05;3.63;;;3.13;;
27983;SDS011;15317;50.360;8.726;2023-08-12T16:37:10;2.63;;;2.35;;
27983;SDS011;15317;50.360;8.726;2023-08-12T16:42:22;3.97;;;2.70;;
27983;SDS011;15317;50.360;8.726;2023-08-12T16:47:25;3.17;;;2.70;;
27983;SDS011;15317;50.360;8.726;2023-08-12T16:52:34;3.13;;;2.60;;
27983;SDS011;15317;50.360;8.726;2023-08-12T16:57:37;3.08;;;2.42;;
27983;SDS011;15317;50.360;8.726;2023-08-12T17:02:40;2.65;;;2.28;;
27983;SDS011;15317;50.360;8.726;2023-08-12T17:07:45;2.80;;;2.60;;
27983;SDS011;15317;50.360;8.726;2023-08-12T17:12:48;2.72;;;2.53;;
27983;SDS011;15317;50.360;8.726;2023-08-12T17:17:51;3.50;;;2.50;;
27983;SDS011;15317;50.360;8.726;2023-08-12T17:22:56;2.50;;;2.30;;
27983;SDS011;15317;50.360;8.726;2023-08-12T17:27:59;3.97;;;2.40;;
27983;SDS011;15317;50.360;8.726;2023-08-12T17:33:02;2.75;;;2.35;;
27983;SDS011;15317;50.360;8.726;2023-08-12T17:38:07;3.90;;;2.28;;
27983;SDS011;15317;50.360;8.726;2023-08-12T17:43:10;2.42;;;2.20;;
27983;SDS011;15317;50.360;8.726;2023-08-12T17:48:13;2.88;;;2.15;;
27983;SDS011;15317;50.360;8.726;2023-08-12T17:53:18;2.72;;;2.30;;
27983;SDS011;15317;50.360;8.726;2023-08-12T17:58:21;2.17;;;2.08;;
27983;SDS011;15317;50.360;8.726;2023-08-12T18:03:24;2.30;;;2.10;;
27983;SDS011;15317;50.360;8.726;2023-08-12T18:08:29;4.00;;;2.30;;
27983;SDS011;15317;50.360;8.726;2023-08-12T18:13:32;4.05;;;2.55;;
27983;SDS011;15317;50.360;8.726;2023-08-12T18:18:35;2.75;;;2.47;;
27983;SDS011;15317;50.360;8.726;2023-08-12T18:23:40;2.95;;;2.50;;
27983;SDS011;15317;50.360;8.726;2023-08-12T18:28:43;5.03;;;2.60;;
27983;SDS011;15317;50.360;8.726;2023-08-12T18:33:46;2.75;;;2.55;;
27983;SDS011;15317;50.360;8.726;2023-08-12T18:38:51;2.83;;;2.50;;
27983;SDS011;15317;50.360;8.726;2023-08-12T18:43:54;3.63;;;2.65;;
27983;SDS011;15317;50.360;8.726;2023-08-12T18:48:57;2.88;;;2.67;;
27983;SDS011;15317;50.360;8.726;2023-08-12T18:54:02;3.88;;;2.40;;
27983;SDS011;15317;50.360;8.726;2023-08-12T18:59:06;3.03;;;2.67;;
27983;SDS011;15317;50.360;8.726;2023-08-12T19:04:09;2.90;;;2.70;;
27983;SDS011;15317;50.360;8.726;2023-08-12T19:09:15;2.75;;;2.55;;
27983;SDS011;15317;50.360;8.726;2023-08-12T19:14:19;3.20;;;2.90;;
27983;SDS011;15317;50.360;8.726;2023-08-12T19:19:22;3.22;;;2.80;;
27983;SDS011;15317;50.360;8.726;2023-08-12T19:24:27;5.45;;;2.80;;
27983;SDS011;15317;50.360;8.726;2023-08-12T19:29:30;7.40;;;3.17;;
27983;SDS011;15317;50.360;8.726;2023-08-12T19:34:33;5.35;;;3.30;;
27983;SDS011;15317;50.360;8.726;2023-08-12T19:39:38;4.80;;;4.32;;
27983;SDS011;15317;50.360;8.726;2023-08-12T19:44:41;6.47;;;5.90;;
27983;SDS011;15317;50.360;8.726;2023-08-12T19:49:44;7.80;;;5.65;;
27983;SDS011;15317;50.360;8.726;2023-08-12T19:54:49;4.47;;;4.18;;
27983;SDS011;15317;50.360;8.726;2023-08-12T19:59:52;4.93;;;3.70;;
27983;SDS011;15317;50.360;8.726;2023-08-12T20:04:57;5.45;;;3.50;;
27983;SDS011;15317;50.360;8.726;2023-08-12T20:10:02;5.07;;;4.43;;
27983;SDS011;15317;50.360;8.726;2023-08-12T20:15:05;5.40;;;3.67;;
27983;SDS011;15317;50.360;8.726;2023-08-12T20:20:09;5.27;;;3.60;;
27983;SDS011;15317;50.360;8.726;2023-08-12T20:25:15;4.90;;;3.87;;
27983;SDS011;15317;50.360;8.726;2023-08-12T20:30:19;3.92;;;3.60;;
27983;SDS011;15317;50.360;8.726;2023-08-12T20:35:22;4.50;;;3.80;;
27983;SDS011;15317;50.360;8.726;2023-08-12T20:40:27;5.10;;;3.80;;
27983;SDS011;15317;50.360;8.726;2023-08-12T20:45:30;5.47;;;3.60;;
27983;SDS011;15317;50.360;8.726;2023-08-12T20:50:33;5.73;;;3.40;;
27983;SDS011;15317;50.360;8.726;2023-08-12T20:55:38;3.83;;;3.40;;
27983;SDS011;15317;50.360;8.726;2023-08-12T21:00:41;4.53;;;3.50;;
27983;SDS011;15317;50.360;8.726;2023-08-12T21:05:48;6.03;;;3.70;;
27983;SDS011;15317;50.360;8.726;2023-08-12T21:10:53;3.87;;;3.23;;
27983;SDS011;15317;50.360;8.726;2023-08-12T21:15:57;3.87;;;3.30;;
27983;SDS011;15317;50.360;8.726;2023-08-12T21:21:00;3.37;;;3.07;;
27983;SDS011;15317;50.360;8.726;2023-08-12T21:26:05;4.17;;;3.27;;
27983;SDS011;15317;50.360;8.726;2023-08-12T21:31:08;3.70;;;3.13;;
27983;SDS011;15317;50.360;8.726;2023-08-12T21:36:13;5.07;;;3.10;;
27983;SDS011;15317;50.360;8.726;2023-08-12T21:41:18;6.07;;;3.40;;
27983;SDS011;15317;50.360;8.726;2023-08-12T21:46:21;4.43;;;3.23;;
27983;SDS011;15317;50.360;8.726;2023-08-12T21:51:25;5.17;;;3.60;;
27983;SDS011;15317;50.360;8.726;2023-08-12T21:56:29;5.10;;;3.63;;
27983;SDS011;15317;50.360;8.726;2023-08-12T22:01:32;4.17;;;3.50;;
27983;SDS011;15317;50.360;8.726;2023-08-12T22:06:36;5.60;;;3.83;;
27983;SDS011;15317;50.360;8.726;2023-08-12T22:11:41;6.10;;;3.63;;
27983;SDS011;15317;50.360;8.726;2023-08-12T22:16:44;6.70;;;4.00;;
27983;SDS011;15317;50.360;8.726;2023-08-12T22:21:47;5.13;;;3.90;;
27983;SDS011;15317;50.360;8.726;2023-08-12T22:26:51;4.37;;;3.27;;
27983;SDS011;15317;50.360;8.726;2023-08-12T22:31:55;3.73;;;3.17;;
27983;SDS011;15317;50.360;8.726;2023-08-12T22:36:58;3.43;;;2.83;;
27983;SDS011;15317;50.360;8.726;2023-08-12T22:42:03;3.60;;;3.17;;
27983;SDS011;15317;50.360;8.726;2023-08-12T22:47:06;3.30;;;3.00;;
27983;SDS011;15317;50.360;8.726;2023-08-12T22:52:09;5.17;;;3.03;;
27983;SDS011;15317;50.360;8.726;2023-08-12T22:57:15;3.33;;;3.03;;
27983;SDS011;15317;50.360;8.726;2023-08-12T23:02:18;2.90;;;2.70;;
27983;SDS011;15317;50.360;8.726;2023-08-12T23:07:22;3.33;;;2.60;;
27983;SDS011;15317;50.360;8.726;2023-08-12T23:12:27;3.78;;;2.67;;
27983;SDS011;15317;50.360;8.726;2023-08-12T23:17:30;3.20;;;2.47;;
27983;SDS011;15317;50.360;8.726;2023-08-12T23:22:34;4.50;;;3.00;;
27983;SDS011;15317;50.360;8.726;2023-08-12T23:27:39;8.33;;;3.40;;
27983;SDS011;15317;50.360;8.726;2023-08-12T23:32:42;3.10;;;2.73;;
27983;SDS011;15317;50.360;8.726;2023-08-12T23:37:46;3.23;;;2.93;;
27983;SDS011;15317;50.360;8.726;2023-08-12T23:42:51;3.37;;;2.63;;
27983;SDS011;15317;50.360;8.726;2023-08-12T23:47:54;3.20;;;2.90;;
27983;SDS011;15317;50.360;8.726;2023-08-12T23:52:57;3.60;;;2.80;;
27983;SDS011;15317;50.360;8.726;2023-08-12T23:58:02;3.10;;;2.90;;
